Time;durP1;ratioP1;P1;durP2;ratioP2;P2;SDS_P1;SDS_P2;PMS_P1;PMS_P2;Temp;Humidity;BMP_temperature;BMP_pressure;BME280_temperature;BME280_humidity;BME280_pressure;Samples;Min_cycle;Max_cycle;Signal;HPM_P1;HPM_P2
2022/04/19 00:00:29;;;;;;;;;;;;;;;20.52;38.65;101344.22;4959889;28;19927;-84
2022/04/19 00:02:54;;;;;;;;;;;;;;;20.52;38.81;101344.22;4950821;29;19923;-84
2022/04/19 00:05:19;;;;;;;;;;;;;;;20.51;38.72;101337.13;4953200;29;19923;-84
2022/04/19 00:07:45;;;;;;;;;;;;;;;20.51;38.71;101341.78;4953191;29;19936;-85
2022/04/19 00:10:11;;;;;;;;;;;;;;;20.50;38.63;101334.66;4952751;28;19918;-86
2022/04/19 00:12:36;;;;;;;;;;;;;;;20.50;38.63;101334.66;4953721;28;19923;-85
2022/04/19 00:15:02;;;;;;;;;;;;;;;20.50;38.69;101335.47;4952360;29;20381;-85
2022/04/19 00:17:27;;;;;;;;;;;;;;;20.49;38.70;101331.09;4954138;28;20390;-86
2022/04/19 00:19:52;;;;;;;;;;;;;;;20.49;38.63;101333.84;4946303;29;19926;-86
2022/04/19 00:22:19;;;;;;;;;;;;;;;20.48;38.61;101328.66;4953783;28;20366;-86
2022/04/19 00:24:44;;;;;;;;;;;;;;;20.48;38.53;101331.38;4952946;28;20017;-85
2022/04/19 00:27:09;;;;;;;;;;;;;;;20.48;38.73;101336.88;4953302;28;20009;-84
2022/04/19 00:29:35;;;;;;;;;;;;;;;20.47;38.72;101335.25;4953236;29;19922;-85
2022/04/19 00:32:00;;;;;;;;;;;;;;;20.47;38.73;101332.50;4952736;28;19962;-86
2022/04/19 00:34:25;;;;;;;;;;;;;;;20.47;38.59;101327.03;4957690;28;20422;-86
2022/04/19 00:36:50;;;;;;;;;;;;;;;20.46;39.06;101328.97;4963549;28;19923;-86
2022/04/19 00:39:16;;;;;;;;;;;;;;;20.46;38.97;101331.69;4972491;28;19937;-86
2022/04/19 00:41:41;;;;;;;;;;;;;;;20.46;38.80;101323.47;4944549;29;19930;-86
2022/04/19 00:44:07;;;;;;;;;;;;;;;20.45;38.68;101324.56;4956262;29;19927;-86
2022/04/19 00:46:33;;;;;;;;;;;;;;;20.45;39.07;101319.06;4955794;28;19922;-84
2022/04/19 00:48:58;;;;;;;;;;;;;;;20.45;38.65;101323.75;4953240;29;20375;-86
2022/04/19 00:51:24;;;;;;;;;;;;;;;20.45;38.66;101323.75;4957503;28;19922;-85
2022/04/19 00:53:50;;;;;;;;;;;;;;;20.43;38.95;101321.28;4972525;28;19965;-85
2022/04/19 00:56:15;;;;;;;;;;;;;;;20.43;38.75;101318.53;4940774;29;19926;-86
2022/04/19 00:58:41;;;;;;;;;;;;;;;20.44;38.91;101314.72;4957496;28;20389;-85
2022/04/19 01:01:06;;;;;;;;;;;;;;;20.43;38.74;101312.25;4957290;29;19930;-85
2022/04/19 01:03:31;;;;;;;;;;;;;;;20.43;38.93;101320.47;4955484;29;19923;-86
2022/04/19 01:05:56;;;;;;;;;;;;;;;20.43;38.93;101315.00;4955067;29;19923;-86
2022/04/19 01:08:23;;;;;;;;;;;;;;;20.43;38.88;101312.25;4957636;28;19934;-86
2022/04/19 01:10:48;;;;;;;;;;;;;;;20.42;38.86;101307.88;4948842;29;19918;-86
2022/04/19 01:13:17;;;;;;;;;;;;;;;20.41;38.87;101304.34;4971449;28;19929;-85
2022/04/19 01:15:46;;;;;;;;;;;;;;;20.41;38.92;101308.97;4955867;28;19918;-85
2022/04/19 01:18:12;;;;;;;;;;;;;;;20.41;38.91;101298.00;4957138;28;19946;-86
2022/04/19 01:20:38;;;;;;;;;;;;;;;20.39;38.83;101298.31;4947745;29;19919;-83
2022/04/19 01:23:04;;;;;;;;;;;;;;;20.40;38.77;101291.72;4952292;29;19927;-84
2022/04/19 01:25:29;;;;;;;;;;;;;;;20.39;38.94;101292.81;4946880;29;19922;-85
2022/04/19 01:27:54;;;;;;;;;;;;;;;20.38;39.22;101293.91;4955735;28;19965;-85
2022/04/19 01:30:20;;;;;;;;;;;;;;;20.39;38.83;101292.81;4971444;28;19928;-86
2022/04/19 01:32:45;;;;;;;;;;;;;;;20.39;38.81;101286.53;4956282;28;19922;-86
2022/04/19 01:35:11;;;;;;;;;;;;;;;20.39;39.05;101298.31;4956689;29;19922;-86
2022/04/19 01:37:38;;;;;;;;;;;;;;;20.39;38.77;101289.28;4948330;29;19922;-83
2022/04/19 01:40:16;;;;;;;;;;;;;;;20.38;38.79;101296.66;4951695;29;20009;-86
2022/04/19 01:42:43;;;;;;;;;;;;;;;20.38;39.05;101301.34;4965281;28;19923;-85
2022/04/19 01:45:09;;;;;;;;;;;;;;;20.37;38.89;101297.78;4956525;28;19937;-85
2022/04/19 01:47:34;;;;;;;;;;;;;;;20.37;39.11;101297.78;4941085;29;19926;-85
2022/04/19 01:49:59;;;;;;;;;;;;;;;20.37;38.70;101302.47;4949327;29;19926;-86
2022/04/19 01:52:25;;;;;;;;;;;;;;;20.37;39.10;101302.47;4956239;29;19922;-83
2022/04/19 01:54:51;;;;;;;;;;;;;;;20.34;38.77;101301.13;4956143;29;19922;-86
2022/04/19 01:57:16;;;;;;;;;;;;;;;20.35;38.79;101302.75;4969311;28;19931;-86
2022/04/19 01:59:41;;;;;;;;;;;;;;;20.35;39.00;101304.69;4956317;28;20371;-85
2022/04/19 02:02:07;;;;;;;;;;;;;;;20.34;39.10;101300.31;4968182;28;20371;-85
2022/04/19 02:04:32;;;;;;;;;;;;;;;20.34;39.07;101297.56;4949073;29;20005;-86
2022/04/19 02:06:57;;;;;;;;;;;;;;;20.34;39.03;101297.56;4955278;28;20141;-86
2022/04/19 02:09:22;;;;;;;;;;;;;;;20.33;39.11;101291.25;4956511;29;19922;-86
2022/04/19 02:11:48;;;;;;;;;;;;;;;20.32;39.14;101292.38;4943186;29;20021;-86
2022/04/19 02:14:13;;;;;;;;;;;;;;;20.32;39.33;101301.41;4945567;28;19981;-86
2022/04/19 02:16:39;;;;;;;;;;;;;;;20.31;39.21;101299.78;4956249;28;19956;-84
2022/04/19 02:19:04;;;;;;;;;;;;;;;20.30;39.18;101295.41;4951722;29;19923;-85
2022/04/19 02:21:30;;;;;;;;;;;;;;;20.31;39.14;101288.00;4950025;29;19931;-85
2022/04/19 02:23:55;;;;;;;;;;;;;;;20.31;39.15;101293.50;4954176;28;20033;-85
2022/04/19 02:26:24;;;;;;;;;;;;;;;20.30;38.99;101295.41;4945208;29;19981;-85
2022/04/19 02:28:49;;;;;;;;;;;;;;;20.30;39.20;101295.41;4955673;28;19926;-86
2022/04/19 02:31:14;;;;;;;;;;;;;;;20.29;38.88;101290.22;4955258;28;20008;-86
2022/04/19 02:33:40;;;;;;;;;;;;;;;20.28;39.23;101286.63;4955105;28;19929;-81
2022/04/19 02:36:05;;;;;;;;;;;;;;;20.28;38.97;101286.63;4956120;28;19966;-85
2022/04/19 02:38:30;;;;;;;;;;;;;;;20.29;39.14;101291.03;4955921;28;19929;-86
2022/04/19 02:40:56;;;;;;;;;;;;;;;20.27;39.15;101285.03;4955910;28;20371;-85
2022/04/19 02:43:21;;;;;;;;;;;;;;;20.27;38.89;101287.75;4943129;28;19950;-85
2022/04/19 02:45:46;;;;;;;;;;;;;;;20.26;39.23;101286.16;4952910;29;19933;-84
2022/04/19 02:48:11;;;;;;;;;;;;;;;20.27;39.06;101295.19;4955551;29;19923;-85
2022/04/19 02:50:41;;;;;;;;;;;;;;;20.25;39.21;101281.75;4951795;28;19993;-85
2022/04/19 02:53:06;;;;;;;;;;;;;;;20.25;39.29;101284.50;4951958;29;19985;-85
2022/04/19 02:55:32;;;;;;;;;;;;;;;20.24;39.17;101288.34;4955453;28;20363;-84
2022/04/19 02:57:57;;;;;;;;;;;;;;;20.24;39.19;101282.06;4961208;28;19918;-85
2022/04/19 03:00:23;;;;;;;;;;;;;;;20.24;39.02;101285.63;4951885;28;19926;-84
2022/04/19 03:02:49;;;;;;;;;;;;;;;20.23;38.93;101275.75;4970076;28;19922;-84
2022/04/19 03:05:15;;;;;;;;;;;;;;;20.22;39.22;101279.59;4954907;28;20379;-85
2022/04/19 03:07:40;;;;;;;;;;;;;;;20.23;39.32;101275.75;4950534;29;19923;-85
2022/04/19 03:10:06;;;;;;;;;;;;;;;20.22;39.29;101281.53;4969554;28;19969;-85
2022/04/19 03:12:31;;;;;;;;;;;;;;;20.21;39.19;101275.25;4954598;29;20272;-85
2022/04/19 03:14:57;;;;;;;;;;;;;;;20.21;39.26;101272.50;4953453;29;19934;-82
2022/04/19 03:17:22;;;;;;;;;;;;;;;20.20;39.23;101276.34;4954426;28;20295;-84
2022/04/19 03:19:48;;;;;;;;;;;;;;;20.21;39.18;101271.66;4938952;29;19958;-85
2022/04/19 03:22:13;;;;;;;;;;;;;;;20.20;39.21;101281.81;4950591;29;19927;-84
2022/04/19 03:30:06;;;;;;;;;;;;;;;20.19;39.15;101271.97;4953666;29;20410;-85
2022/04/19 03:32:32;;;;;;;;;;;;;;;20.17;39.19;101274.19;4955159;28;19965;-85
2022/04/19 03:34:58;;;;;;;;;;;;;;;20.18;39.21;101275.00;4954120;29;20009;-84
2022/04/19 03:37:23;;;;;;;;;;;;;;;20.17;39.33;101276.94;4965724;28;20021;-85
2022/04/19 03:39:48;;;;;;;;;;;;;;;20.18;39.37;101277.75;4948456;29;20311;-85
2022/04/19 03:42:13;;;;;;;;;;;;;;;20.17;39.34;101273.38;4954455;28;20025;-85
2022/04/19 03:44:39;;;;;;;;;;;;;;;20.17;39.08;101265.16;4954407;28;19931;-85
2022/04/19 03:47:07;;;;;;;;;;;;;;;20.16;39.22;101272.56;4968908;28;19927;-85
2022/04/19 03:49:33;;;;;;;;;;;;;;;20.16;39.11;101269.81;4969420;28;19969;-85
2022/04/19 03:51:58;;;;;;;;;;;;;;;20.16;39.30;101271.72;4950727;28;20397;-85
2022/04/19 03:54:23;;;;;;;;;;;;;;;20.15;39.25;101270.91;4941423;29;19922;-85
2022/04/19 03:56:49;;;;;;;;;;;;;;;20.15;39.27;101272.84;4926177;29;19927;-83
2022/04/19 03:59:14;;;;;;;;;;;;;;;20.14;39.09;101269.28;4954369;28;19922;-84
2022/04/19 04:01:39;;;;;;;;;;;;;;;20.14;39.39;101272.03;4950858;28;19931;-83
2022/04/19 04:04:07;;;;;;;;;;;;;;;20.13;39.10;101275.06;4951395;29;19929;-85
2022/04/19 04:06:32;;;;;;;;;;;;;;;20.14;39.17;101271.22;4953005;28;20289;-85
2022/04/19 04:08:58;;;;;;;;;;;;;;;20.13;39.20;101264.91;4953058;28;19922;-85
2022/04/19 04:11:23;;;;;;;;;;;;;;;20.12;39.14;101279.75;4953948;28;20029;-85
2022/04/19 04:13:48;;;;;;;;;;;;;;;20.13;39.14;101272.31;4952491;29;20342;-84
2022/04/19 04:16:13;;;;;;;;;;;;;;;20.12;39.10;101274.25;4953970;29;19923;-85
2022/04/19 04:18:41;;;;;;;;;;;;;;;20.12;39.33;101267.97;4952439;28;20010;-84
2022/04/19 04:21:07;;;;;;;;;;;;;;;20.10;39.24;101269.06;4944127;28;19989;-84
2022/04/19 04:23:33;;;;;;;;;;;;;;;20.10;39.30;101273.72;4967652;28;19926;-85
2022/04/19 04:25:58;;;;;;;;;;;;;;;20.09;39.09;101270.16;4953449;28;20414;-85
2022/04/19 04:28:24;;;;;;;;;;;;;;;20.09;39.36;101272.09;4954218;29;19919;-85
2022/04/19 04:30:49;;;;;;;;;;;;;;;20.08;39.16;101274.03;4945268;28;19927;-83
2022/04/19 04:33:14;;;;;;;;;;;;;;;20.08;39.38;101268.56;4942542;29;19927;-85
2022/04/19 04:35:40;;;;;;;;;;;;;;;20.08;39.32;101273.19;4949054;29;19923;-85
2022/04/19 04:38:05;;;;;;;;;;;;;;;20.08;39.30;101278.69;4951305;29;19982;-85
2022/04/19 04:40:30;;;;;;;;;;;;;;;20.07;39.32;101279.81;4951117;29;20472;-84
2022/04/19 04:42:55;;;;;;;;;;;;;;;20.07;39.11;101283.34;4953329;28;19919;-83
2022/04/19 04:45:20;;;;;;;;;;;;;;;20.06;39.11;101286.41;4965470;28;20344;-84
2022/04/19 04:50:30;;;;;;;;;;;;;;;20.05;39.20;101276.53;4950475;29;19982;-83
2022/04/19 04:52:55;;;;;;;;;;;;;;;20.05;39.39;101285.56;4968074;28;20394;-84
2022/04/19 04:55:21;;;;;;;;;;;;;;;20.05;39.24;101284.75;4953865;29;19930;-83
2022/04/19 04:57:46;;;;;;;;;;;;;;;20.04;39.27;101283.13;4952968;29;19932;-84
2022/04/19 05:00:12;;;;;;;;;;;;;;;20.04;39.21;101283.13;4953035;28;19923;-84
2022/04/19 05:02:37;;;;;;;;;;;;;;;20.04;39.32;101289.44;4953851;28;20319;-85
2022/04/19 05:05:02;;;;;;;;;;;;;;;20.03;39.26;101290.56;4952680;28;19934;-85
2022/04/19 05:07:28;;;;;;;;;;;;;;;20.04;39.26;101291.38;4954050;28;20078;-84
2022/04/19 05:09:55;;;;;;;;;;;;;;;20.03;39.13;101282.31;4953351;28;19929;-84
2022/04/19 05:12:21;;;;;;;;;;;;;;;20.03;39.39;101292.47;4965388;28;19918;-83
2022/04/19 05:14:46;;;;;;;;;;;;;;;20.02;39.35;101282.59;4945650;29;20017;-84
2022/04/19 05:17:11;;;;;;;;;;;;;;;20.03;39.44;101289.72;4935812;28;19923;-79
2022/04/19 05:19:36;;;;;;;;;;;;;;;20.02;39.49;101286.16;4948516;29;19922;-86
2022/04/19 05:22:02;;;;;;;;;;;;;;;20.02;39.19;101285.34;4956995;28;20444;-85
2022/04/19 05:24:28;;;;;;;;;;;;;;;20.02;39.26;101293.56;4955579;29;20402;-88
2022/04/19 05:26:53;;;;;;;;;;;;;;;20.02;39.29;101297.13;4957292;28;19923;-86
2022/04/19 05:29:19;;;;;;;;;;;;;;;20.02;39.40;101288.91;4950206;29;20025;-84
2022/04/19 05:31:44;;;;;;;;;;;;;;;20.03;39.54;101293.31;4953731;28;19954;-84
2022/04/19 05:34:10;;;;;;;;;;;;;;;20.04;39.51;101288.63;4969062;28;19922;-81
2022/04/19 05:36:36;;;;;;;;;;;;;;;20.06;39.42;101283.66;4953287;28;19985;-83
2022/04/19 05:39:01;;;;;;;;;;;;;;;20.08;39.52;101292.38;4955239;28;19918;-83
2022/04/19 05:41:26;;;;;;;;;;;;;;;20.09;39.70;101289.38;4951884;28;19918;-82
2022/04/19 05:43:52;;;;;;;;;;;;;;;20.10;39.60;101299.22;4957915;28;20377;-86
2022/04/19 05:46:18;;;;;;;;;;;;;;;20.12;39.55;101298.13;4967530;28;19922;-83
2022/04/19 05:48:47;;;;;;;;;;;;;;;20.13;39.83;101307.97;4963022;28;19922;-81
2022/04/19 05:51:12;;;;;;;;;;;;;;;20.12;39.66;101304.41;4953154;28;19927;-82
2022/04/19 05:53:40;;;;;;;;;;;;;;;20.13;39.92;101307.97;4953740;28;20438;-82
2022/04/19 05:56:06;;;;;;;;;;;;;;;20.13;40.02;101306.03;4965708;28;19922;-81
2022/04/19 05:58:31;;;;;;;;;;;;;;;20.15;39.65;101311.25;4958087;28;20473;-82
2022/04/19 06:00:57;;;;;;;;;;;;;;;20.14;39.66;101307.69;4955164;28;20294;-80
2022/04/19 06:06:06;;;;;;;;;;;;;;;20.16;39.71;101316.44;4951688;28;20346;-81
2022/04/19 06:08:32;;;;;;;;;;;;;;;20.17;39.79;101318.06;4954704;28;19926;-85
2022/04/19 06:10:57;;;;;;;;;;;;;;;20.17;40.12;101320.81;4951636;28;19945;-80
2022/04/19 06:13:23;;;;;;;;;;;;;;;20.19;40.10;101326.81;4960415;28;20013;-81
2022/04/19 06:15:48;;;;;;;;;;;;;;;20.19;40.05;101324.09;4959914;28;20294;-80
2022/04/19 06:18:13;;;;;;;;;;;;;;;20.21;39.96;101324.63;4972383;28;19929;-84
2022/04/19 06:20:40;;;;;;;;;;;;;;;20.22;39.83;101328.97;4958403;28;20397;-83
2022/04/19 06:23:06;;;;;;;;;;;;;;;20.24;40.06;101326.75;4961423;28;20351;-82
2022/04/19 06:25:31;;;;;;;;;;;;;;;20.24;40.18;101329.50;4954437;28;19923;-83
2022/04/19 06:27:57;;;;;;;;;;;;;;;20.27;40.01;101325.38;4954364;28;19926;-81
2022/04/19 06:30:23;;;;;;;;;;;;;;;20.26;40.18;101324.56;4952665;28;19922;-83
2022/04/19 06:32:48;;;;;;;;;;;;;;;20.29;40.14;101336.88;4954708;28;19961;-82
2022/04/19 06:35:14;;;;;;;;;;;;;;;20.29;40.12;101329.44;4953669;28;19962;-81
2022/04/19 06:37:39;;;;;;;;;;;;;;;20.30;40.09;101330.25;4954239;28;20338;-81
2022/04/19 06:40:06;;;;;;;;;;;;;;;20.30;40.02;101336.56;4951993;28;19989;-82
2022/04/19 06:42:32;;;;;;;;;;;;;;;20.31;40.03;101335.47;4952946;28;19930;-81
2022/04/19 06:44:57;;;;;;;;;;;;;;;20.32;40.04;101333.53;4948540;28;19931;-79
2022/04/19 06:47:25;;;;;;;;;;;;;;;20.33;40.03;101337.88;4952652;28;19928;-83
2022/04/19 06:49:51;;;;;;;;;;;;;;;20.34;40.29;101338.72;4950647;28;19958;-86
2022/04/19 06:52:16;;;;;;;;;;;;;;;20.34;40.18;101336.78;4965015;28;19926;-83
2022/04/19 06:54:42;;;;;;;;;;;;;;;20.36;40.34;101339.22;4959967;28;20294;-84
2022/04/19 06:57:07;;;;;;;;;;;;;;;20.36;40.30;101339.22;4951986;28;20331;-86
2022/04/19 06:59:32;;;;;;;;;;;;;;;20.37;40.22;101341.69;4952455;28;19933;-88
2022/04/19 07:01:57;;;;;;;;;;;;;;;20.38;40.14;101342.50;4947417;28;20069;-84
2022/04/19 07:04:23;;;;;;;;;;;;;;;20.38;40.29;101343.31;4949501;28;19970;-84
2022/04/19 07:06:49;;;;;;;;;;;;;;;20.38;40.10;101342.50;4953539;28;20387;-86
2022/04/19 07:09:14;;;;;;;;;;;;;;;20.40;40.19;101340.28;4958713;28;19974;-85
2022/04/19 07:11:40;;;;;;;;;;;;;;;20.40;40.19;101337.53;4951591;28;20311;-86
2022/04/19 07:14:05;;;;;;;;;;;;;;;20.41;40.43;101341.91;4942239;28;19937;-81
2022/04/19 07:16:30;;;;;;;;;;;;;;;20.43;40.38;101342.44;4948504;28;19953;-80
2022/04/19 07:18:55;;;;;;;;;;;;;;;20.42;40.33;101347.13;4946489;28;19934;-80
2022/04/19 07:26:49;;;;;;;;;;;;;;;20.45;40.19;101353.94;4934484;29;20022;-80
2022/04/19 07:29:15;;;;;;;;;;;;;;;20.45;40.15;101349.25;4936247;29;20001;-80
2022/04/19 07:31:44;;;;;;;;;;;;;;;20.46;40.45;101344.56;4934040;29;20013;-79
2022/04/19 07:34:10;;;;;;;;;;;;;;;20.46;40.22;101342.69;4936017;29;19930;-86
2022/04/19 07:36:39;;;;;;;;;;;;;;;20.47;40.35;101349.78;4951647;28;19927;-79
2022/04/19 07:39:04;;;;;;;;;;;;;;;20.48;40.35;101351.41;4944558;28;19915;-80
2022/04/19 07:41:30;;;;;;;;;;;;;;;20.48;40.23;101350.59;4945541;28;19922;-84
2022/04/19 07:43:55;;;;;;;;;;;;;;;20.49;40.14;101350.31;4945775;28;19923;-85
2022/04/19 07:46:21;;;;;;;;;;;;;;;20.50;40.21;101342.88;4934413;29;20230;-81
2022/04/19 07:48:47;;;;;;;;;;;;;;;20.50;40.13;101340.97;4931130;29;19919;-82
2022/04/19 07:51:14;;;;;;;;;;;;;;;20.51;40.34;101341.78;4933802;29;19970;-87
2022/04/19 07:53:39;;;;;;;;;;;;;;;20.51;39.96;101345.34;4946850;29;19919;-88
2022/04/19 07:56:04;;;;;;;;;;;;;;;20.53;40.08;101336.81;4934177;28;19922;-86
2022/04/19 07:58:30;;;;;;;;;;;;;;;20.55;40.20;101350.28;4937600;29;20463;-87
2022/04/19 08:00:55;;;;;;;;;;;;;;;20.55;40.27;101342.03;4920909;29;20009;-85
2022/04/19 08:03:21;;;;;;;;;;;;;;;20.56;40.28;101349.97;4940680;28;19923;-85
2022/04/19 08:05:46;;;;;;;;;;;;;;;20.56;39.98;101349.97;4913677;29;19919;-88
2022/04/19 08:08:12;;;;;;;;;;;;;;;20.57;39.94;101350.81;4931545;29;19918;-84
2022/04/19 08:10:37;;;;;;;;;;;;;;;20.57;40.17;101351.63;4932835;29;20403;-84
2022/04/19 08:13:04;;;;;;;;;;;;;;;20.59;39.86;101359.53;4923631;29;19923;-84
2022/04/19 08:15:30;;;;;;;;;;;;;;;20.59;39.97;101351.31;4932073;29;19926;-83
2022/04/19 08:17:55;;;;;;;;;;;;;;;20.60;40.08;101347.47;4914280;29;20283;-84
2022/04/19 08:20:21;;;;;;;;;;;;;;;20.60;40.08;101350.22;4935513;29;19919;-86
2022/04/19 08:22:46;;;;;;;;;;;;;;;20.61;40.17;101352.63;4951777;28;19918;-86
2022/04/19 08:25:11;;;;;;;;;;;;;;;20.61;40.21;101338.09;4949969;28;20355;-85
2022/04/19 08:27:37;;;;;;;;;;;;;;;20.62;39.96;101346.06;4956331;28;20402;-84
2022/04/19 08:30:03;;;;;;;;;;;;;;;20.63;40.21;101336.69;4953017;28;19918;-83
2022/04/19 08:32:29;;;;;;;;;;;;;;;20.63;40.06;101342.19;4951921;28;19925;-83
2022/04/19 08:34:56;;;;;;;;;;;;;;;20.64;39.87;101340.28;4943141;28;19923;-84
2022/04/19 08:37:21;;;;;;;;;;;;;;;20.65;40.11;101342.72;4952687;28;19958;-87
2022/04/19 08:39:47;;;;;;;;;;;;;;;20.65;40.17;101336.41;4968689;28;19922;-87
2022/04/19 08:42:12;;;;;;;;;;;;;;;20.66;39.92;101338.88;4966755;28;19950;-87
2022/04/19 08:44:37;;;;;;;;;;;;;;;20.67;39.83;101336.94;4953169;28;20493;-87
2022/04/19 08:47:08;;;;;;;;;;;;;;;20.66;39.83;101333.38;4965852;28;19976;-87
2022/04/19 08:49:41;;;;;;;;;;;;;;;20.68;40.17;101327.56;4952576;28;20191;-89
2022/04/19 08:52:07;;;;;;;;;;;;;;;20.68;40.06;101330.31;4960263;28;20639;-84
2022/04/19 08:57:31;;;;;;;;;;;;;;;20.69;39.97;101329.22;4952926;28;19936;-85
2022/04/19 09:00:00;;;;;;;;;;;;;;;20.70;39.78;101328.91;4956814;28;19934;-87
2022/04/19 09:02:27;;;;;;;;;;;;;;;20.70;40.12;101326.16;4952890;28;19922;-83
2022/04/19 09:04:53;;;;;;;;;;;;;;;20.72;39.98;101323.13;4954076;28;19938;-85
2022/04/19 09:07:19;;;;;;;;;;;;;;;20.72;39.85;101320.38;4954210;28;20340;-84
2022/04/19 09:09:58;;;;;;;;;;;;;;;20.72;39.98;101321.19;4950169;28;19922;-84
2022/04/19 09:12:23;;;;;;;;;;;;;;;20.73;39.98;101322.81;4971266;28;19923;-84
2022/04/19 09:14:56;;;;;;;;;;;;;;;20.74;39.64;101324.47;4954121;28;20184;-83
2022/04/19 09:17:30;;;;;;;;;;;;;;;20.75;39.94;101317.03;4959511;28;20021;-84
2022/04/19 09:20:07;;;;;;;;;;;;;;;20.75;39.78;101317.84;4960843;28;19966;-88
2022/04/19 09:22:32;;;;;;;;;;;;;;;20.77;39.94;101314.00;4950986;28;19929;-87
2022/04/19 09:25:12;;;;;;;;;;;;;;;20.77;39.83;101308.53;4953749;28;20917;-85
2022/04/19 09:27:37;;;;;;;;;;;;;;;20.77;39.69;101309.34;4954998;28;19918;-86
2022/04/19 09:30:15;;;;;;;;;;;;;;;20.78;39.87;101308.22;4954717;28;19937;-87
2022/04/19 09:32:41;;;;;;;;;;;;;;;20.79;39.86;101307.09;4953386;28;19930;-91
2022/04/19 09:35:06;;;;;;;;;;;;;;;20.80;39.74;101308.72;4951513;28;20293;-89
2022/04/19 09:37:32;;;;;;;;;;;;;;;20.81;39.71;101312.28;4956124;28;19923;-88
2022/04/19 09:39:57;;;;;;;;;;;;;;;20.81;39.87;101304.06;4954702;28;19930;-85
2022/04/19 09:42:25;;;;;;;;;;;;;;;20.82;39.93;101309.25;4967945;28;19922;-84
2022/04/19 09:44:51;;;;;;;;;;;;;;;20.84;39.84;101307.03;4952882;28;19961;-86
2022/04/19 09:47:17;;;;;;;;;;;;;;;20.85;39.91;101311.41;4954104;28;20354;-87
2022/04/19 09:49:45;;;;;;;;;;;;;;;20.85;39.66;101311.41;4955810;28;20405;-86
2022/04/19 09:52:34;;;;;;;;;;;;;;;20.86;39.91;101314.94;4956277;28;19923;-84
2022/04/19 09:55:00;;;;;;;;;;;;;;;20.86;39.67;101312.22;4952665;28;19934;-86
2022/04/19 09:57:26;;;;;;;;;;;;;;;20.87;39.68;101309.19;4977237;28;20001;-85
2022/04/19 09:59:51;;;;;;;;;;;;;;;20.87;39.60;101300.94;4955973;28;20013;-87
2022/04/19 10:10:31;;;;;;;;;;;;;;;20.88;39.71;101305.31;4957049;28;20645;-81
2022/04/19 10:12:57;;;;;;;;;;;;;;;20.90;39.95;101303.06;4960093;28;20062;-82
2022/04/19 10:15:22;;;;;;;;;;;;;;;20.91;39.86;101296.47;4948618;28;20013;-84
2022/04/19 10:17:48;;;;;;;;;;;;;;;20.93;40.05;101296.16;4953727;28;20289;-81
2022/04/19 10:20:14;;;;;;;;;;;;;;;20.93;39.90;101294.25;4958632;28;20367;-82
2022/04/19 10:22:47;;;;;;;;;;;;;;;20.94;39.94;101300.53;4962910;28;20399;-82
2022/04/19 10:25:16;;;;;;;;;;;;;;;20.94;39.80;101290.41;4953808;28;20367;-83
2022/04/19 10:27:42;;;;;;;;;;;;;;;20.95;39.78;101280.22;4954674;28;20291;-82
2022/04/19 10:30:08;;;;;;;;;;;;;;;20.95;39.68;101281.03;4954234;28;19931;-86
2022/04/19 10:32:33;;;;;;;;;;;;;;;20.97;39.89;101280.75;4952630;28;19930;-86
2022/04/19 10:34:59;;;;;;;;;;;;;;;20.98;39.77;101279.63;4952556;28;19922;-83
2022/04/19 10:37:26;;;;;;;;;;;;;;;20.99;39.88;101280.41;4958366;28;20012;-84
2022/04/19 10:39:52;;;;;;;;;;;;;;;21.00;39.66;101282.88;4969277;28;19923;-84
2022/04/19 10:42:37;;;;;;;;;;;;;;;21.00;39.77;101274.63;4952161;28;19949;-87
2022/04/19 10:45:09;;;;;;;;;;;;;;;21.01;39.68;101273.50;4948397;28;19922;-85
2022/04/19 10:47:54;;;;;;;;;;;;;;;21.01;40.01;101279.00;4949444;28;19923;-84
2022/04/19 10:50:29;;;;;;;;;;;;;;;21.02;39.87;101279.84;4953807;28;20393;-82
2022/04/19 10:52:58;;;;;;;;;;;;;;;21.02;39.68;101275.16;4953262;28;19919;-84
2022/04/19 10:55:25;;;;;;;;;;;;;;;21.03;39.92;101278.72;4967398;28;19989;-84
2022/04/19 10:58:06;;;;;;;;;;;;;;;21.03;39.82;101276.78;4957358;28;19930;-86
2022/04/19 11:00:34;;;;;;;;;;;;;;;21.03;39.75;101267.72;4964341;28;20334;-83
2022/04/19 11:03:03;;;;;;;;;;;;;;;21.05;39.67;101273.75;4952578;28;19957;-84
2022/04/19 11:05:47;;;;;;;;;;;;;;;21.06;39.93;101272.63;4951251;28;19926;-85
2022/04/19 11:08:24;;;;;;;;;;;;;;;21.06;39.67;101273.44;4953061;28;20366;-85
2022/04/19 11:10:56;;;;;;;;;;;;;;;21.06;39.66;101270.69;4963156;28;19918;-87
2022/04/19 11:13:29;;;;;;;;;;;;;;;21.08;39.66;101273.13;4953072;28;19929;-88
2022/04/19 11:16:06;;;;;;;;;;;;;;;21.09;39.88;101261.88;4954312;28;19958;-87
2022/04/19 11:18:32;;;;;;;;;;;;;;;21.10;40.10;101259.94;4949964;28;19927;-87
2022/04/19 11:20:58;;;;;;;;;;;;;;;21.10;40.03;101265.41;4952688;28;19977;-86
2022/04/19 11:23:25;;;;;;;;;;;;;;;21.10;39.84;101268.97;4953758;28;19922;-89
2022/04/19 11:25:51;;;;;;;;;;;;;;;21.10;39.92;101258.00;4949489;28;19926;-85
2022/04/19 11:28:30;;;;;;;;;;;;;;;21.12;39.83;101263.19;4957454;28;20428;-84
2022/04/19 11:30:55;;;;;;;;;;;;;;;21.12;40.05;101261.25;4954716;28;19941;-84
2022/04/19 11:33:21;;;;;;;;;;;;;;;21.13;39.74;101265.63;4949023;28;20428;-83
2022/04/19 11:36:05;;;;;;;;;;;;;;;21.14;39.75;101260.94;4964093;28;20013;-83
2022/04/19 11:38:31;;;;;;;;;;;;;;;21.15;40.08;101265.34;4951073;28;19927;-83
2022/04/19 11:46:46;;;;;;;;;;;;;;;21.18;39.96;101262.78;4954720;28;19934;-83
2022/04/19 11:49:28;;;;;;;;;;;;;;;21.18;40.13;101260.03;4953690;28;19937;-83
2022/04/19 11:51:55;;;;;;;;;;;;;;;21.20;40.10;101253.44;4958756;28;19949;-83
2022/04/19 11:54:20;;;;;;;;;;;;;;;21.20;39.74;101253.44;4954492;28;19930;-80
2022/04/19 11:56:49;;;;;;;;;;;;;;;21.20;39.72;101245.19;4952747;28;19949;-83
2022/04/19 11:59:14;;;;;;;;;;;;;;;21.21;39.78;101244.88;4954744;28;19918;-83
2022/04/19 12:01:46;;;;;;;;;;;;;;;21.22;40.00;101245.69;4967886;28;19980;-83
2022/04/19 12:04:13;;;;;;;;;;;;;;;21.23;40.04;101242.66;4962403;28;19977;-80
2022/04/19 12:06:38;;;;;;;;;;;;;;;21.25;39.65;101242.34;4951083;28;19930;-83
2022/04/19 12:09:04;;;;;;;;;;;;;;;21.23;39.61;101239.09;4968287;28;19923;-83
2022/04/19 12:11:30;;;;;;;;;;;;;;;21.25;39.79;101239.63;4952376;28;19926;-83
2022/04/19 12:13:56;;;;;;;;;;;;;;;21.25;39.67;101245.09;4948618;28;20294;-82
2022/04/19 12:16:38;;;;;;;;;;;;;;;21.26;40.03;101238.47;4951724;28;19927;-89
2022/04/19 12:19:07;;;;;;;;;;;;;;;21.26;39.97;101233.00;4950824;28;20398;-84
2022/04/19 12:21:38;;;;;;;;;;;;;;;21.25;39.92;101243.16;4950095;28;20139;-86
2022/04/19 12:24:03;;;;;;;;;;;;;;;21.24;39.98;101222.28;4956997;28;20053;-88
2022/04/19 12:26:29;;;;;;;;;;;;;;;21.25;39.69;101229.44;4955225;28;20011;-87
2022/04/19 12:29:05;;;;;;;;;;;;;;;21.27;40.04;101226.38;4961712;28;20417;-87
2022/04/19 12:31:34;;;;;;;;;;;;;;;21.27;39.59;101226.38;4982467;28;20295;-89
2022/04/19 12:34:00;;;;;;;;;;;;;;;21.26;39.95;101231.06;4959136;28;19919;-89
2022/04/19 12:36:26;;;;;;;;;;;;;;;21.27;39.79;101226.38;4952337;28;19929;-89
2022/04/19 12:39:03;;;;;;;;;;;;;;;21.27;39.64;101224.47;4952772;28;19929;-88
2022/04/19 12:41:38;;;;;;;;;;;;;;;21.29;39.68;101222.22;4949904;28;19918;-88
2022/04/19 12:44:04;;;;;;;;;;;;;;;21.29;39.63;101224.97;4954508;28;19922;-91
2022/04/19 12:46:32;;;;;;;;;;;;;;;21.30;39.69;101217.53;4953888;28;19923;-85
2022/04/19 12:48:58;;;;;;;;;;;;;;;21.30;39.67;101210.09;4951706;28;19934;-86
2022/04/19 12:51:26;;;;;;;;;;;;;;;21.30;39.84;101214.78;4953745;28;20010;-85
2022/04/19 12:54:21;;;;;;;;;;;;;;;21.31;39.69;101208.97;4953665;28;19926;-87
2022/04/19 12:56:54;;;;;;;;;;;;;;;21.32;39.59;101196.06;4946929;28;20016;-88
2022/04/19 12:59:19;;;;;;;;;;;;;;;21.33;39.89;101203.19;4961915;28;19932;-81
2022/04/19 13:01:44;;;;;;;;;;;;;;;21.33;39.67;101208.69;4953140;28;19918;-84
2022/04/19 13:04:09;;;;;;;;;;;;;;;21.33;39.68;101206.75;4955641;28;20053;-93
2022/04/19 13:12:18;;;;;;;;;;;;;;;21.34;39.79;101208.38;4971289;28;20042;-84